createdAt,value
2017-08-11T00:01:40.033Z,5.10
2017-08-11T00:04:06.333Z,5.70
2017-08-11T00:06:32.605Z,4.97
2017-08-11T00:08:58.859Z,8.30
2017-08-11T00:11:25.179Z,7.17
2017-08-11T00:13:52.227Z,7.00
2017-08-11T00:16:18.491Z,6.10
2017-08-11T00:18:45.542Z,13.03
2017-08-11T00:21:11.793Z,7.30
2017-08-11T00:23:38.810Z,5.83
2017-08-11T00:26:05.187Z,5.50
2017-08-11T00:28:31.759Z,5.90
2017-08-11T00:30:58.785Z,5.43
2017-08-11T00:33:25.113Z,7.20
2017-08-11T00:35:51.357Z,6.53
2017-08-11T00:38:17.628Z,6.03
2017-08-11T00:40:43.887Z,5.10
2017-08-11T00:43:10.153Z,6.13
2017-08-11T00:45:37.160Z,4.73
2017-08-11T00:48:03.437Z,5.87
2017-08-11T00:50:29.749Z,5.80
2017-08-11T00:52:56.012Z,6.03
2017-08-11T00:55:22.276Z,6.63
2017-08-11T00:57:48.526Z,5.90
2017-08-11T01:00:14.783Z,5.77
2017-08-11T01:02:41.060Z,6.10
2017-08-11T01:05:07.355Z,4.33
2017-08-11T01:07:33.630Z,5.23
2017-08-11T01:09:59.921Z,4.40
2017-08-11T01:12:26.183Z,7.70
2017-08-11T01:14:52.470Z,5.97
2017-08-11T01:17:18.742Z,14.60
2017-08-11T01:19:45.759Z,7.53
2017-08-11T01:22:12.019Z,10.20
2017-08-11T01:24:38.278Z,5.90
2017-08-11T01:27:04.538Z,8.57
2017-08-11T01:29:31.549Z,10.07
2017-08-11T01:31:57.832Z,6.33
2017-08-11T01:34:24.112Z,9.53
2017-08-11T01:36:51.115Z,8.87
2017-08-11T01:39:17.394Z,8.77
2017-08-11T01:41:43.707Z,7.03
2017-08-11T01:44:10.008Z,8.60
2017-08-11T01:46:37.045Z,7.27
2017-08-11T01:49:03.315Z,9.90
2017-08-11T01:51:29.603Z,8.20
2017-08-11T01:53:56.663Z,10.43
2017-08-11T01:56:22.933Z,9.30
2017-08-11T01:58:49.246Z,9.93
2017-08-11T02:01:15.527Z,9.83
2017-08-11T02:03:41.853Z,7.80
2017-08-11T02:06:08.137Z,7.80
2017-08-11T02:08:34.416Z,8.03
2017-08-11T02:11:01.447Z,9.30
2017-08-11T02:13:27.736Z,8.10
2017-08-11T02:15:54.741Z,7.60
2017-08-11T02:18:20.998Z,8.27
2017-08-11T02:20:47.743Z,8.83
2017-08-11T02:23:14.002Z,9.63
2017-08-11T02:25:40.267Z,12.27
2017-08-11T02:28:06.543Z,11.33
2017-08-11T02:30:33.538Z,10.13
2017-08-11T02:32:59.791Z,10.87
2017-08-11T02:35:26.079Z,10.70
2017-08-11T02:37:52.347Z,20.50
2017-08-11T02:40:18.661Z,11.13
2017-08-11T02:42:44.960Z,12.13
2017-08-11T02:45:11.949Z,10.57
2017-08-11T02:47:38.220Z,18.53
2017-08-11T02:50:04.499Z,9.07
2017-08-11T02:52:31.528Z,11.00
2017-08-11T02:54:57.832Z,11.53
2017-08-11T02:57:24.870Z,10.33
2017-08-11T02:59:51.163Z,11.63
2017-08-11T03:02:17.441Z,12.93
2017-08-11T03:04:43.728Z,10.90
2017-08-11T03:07:10.729Z,11.03
2017-08-11T03:09:36.996Z,12.70
2017-08-11T03:12:03.268Z,18.30
2017-08-11T03:14:30.291Z,11.97
2017-08-11T03:16:56.579Z,13.50
2017-08-11T03:19:23.611Z,40.10
2017-08-11T03:21:49.873Z,19.17
2017-08-11T03:24:16.147Z,17.37
2017-08-11T03:26:42.404Z,21.47
2017-08-11T03:29:08.709Z,15.93
2017-08-11T03:31:34.968Z,14.77
2017-08-11T03:34:01.226Z,16.90
2017-08-11T03:36:27.489Z,18.33
2017-08-11T03:38:54.508Z,20.27
2017-08-11T03:41:20.729Z,23.57
2017-08-11T03:43:46.999Z,20.10
2017-08-11T03:46:13.251Z,17.43
2017-08-11T03:48:39.514Z,14.03
2017-08-11T03:51:05.787Z,17.77
2017-08-11T03:53:32.051Z,16.43
2017-08-11T03:55:59.058Z,24.80
2017-08-11T03:58:25.310Z,18.50
2017-08-11T04:00:51.583Z,15.30
2017-08-11T04:03:17.881Z,19.30
2017-08-11T04:05:44.860Z,19.87
2017-08-11T04:08:11.139Z,22.57
2017-08-11T04:10:37.357Z,15.90
2017-08-11T04:13:03.580Z,20.33
2017-08-11T04:15:30.543Z,15.97
2017-08-11T04:17:57.527Z,23.90
2017-08-11T04:20:24.148Z,19.57
2017-08-11T04:22:51.161Z,13.97
2017-08-11T04:25:17.376Z,22.23
2017-08-11T04:27:44.364Z,23.67
2017-08-11T04:30:10.581Z,22.30
2017-08-11T04:32:37.560Z,21.30
2017-08-11T04:35:03.795Z,17.57
2017-08-11T04:37:30.775Z,17.83
2017-08-11T04:39:57.019Z,16.43
2017-08-11T04:42:23.263Z,21.90
2017-08-11T04:44:49.485Z,13.97
2017-08-11T04:47:15.705Z,18.47
2017-08-11T04:49:41.927Z,16.67
2017-08-11T04:52:08.182Z,16.80
2017-08-11T04:54:34.413Z,15.90
2017-08-11T04:57:00.630Z,15.83
2017-08-11T04:59:27.607Z,14.03
2017-08-11T05:01:53.808Z,19.57
2017-08-11T05:04:20.043Z,20.00
2017-08-11T05:06:46.263Z,19.90
2017-08-11T05:09:12.500Z,30.37
2017-08-11T05:11:38.752Z,22.13
2017-08-11T05:14:04.991Z,27.07
2017-08-11T05:16:31.211Z,22.13
2017-08-11T05:18:58.196Z,18.80
2017-08-11T05:21:24.429Z,20.90
2017-08-11T05:23:50.681Z,18.33
2017-08-11T05:26:16.913Z,22.40
2017-08-11T05:28:43.881Z,14.87
2017-08-11T05:31:11.928Z,17.93
2017-08-11T05:33:38.267Z,20.60
2017-08-11T05:36:04.481Z,28.37
2017-08-11T05:38:30.709Z,17.93
2017-08-11T05:40:57.670Z,22.27
2017-08-11T05:43:24.639Z,15.33
2017-08-11T05:45:51.619Z,15.17
2017-08-11T05:48:17.853Z,15.07
2017-08-11T05:50:44.835Z,21.67
2017-08-11T05:53:11.058Z,18.63
2017-08-11T05:55:38.035Z,18.67
2017-08-11T05:58:04.308Z,21.57
2017-08-11T06:00:30.691Z,18.03
2017-08-11T06:02:56.932Z,14.60
2017-08-11T06:05:23.181Z,17.00
2017-08-11T06:07:49.420Z,23.20
2017-08-11T06:10:15.708Z,16.60
2017-08-11T06:12:41.936Z,24.90
2017-08-11T06:15:08.963Z,23.80
2017-08-11T06:17:35.214Z,24.93
2017-08-11T06:20:01.451Z,23.80
2017-08-11T06:22:27.728Z,24.33
2017-08-11T06:24:53.970Z,32.17
2017-08-11T06:27:20.251Z,27.40
2017-08-11T06:29:47.384Z,25.60
2017-08-11T06:32:13.724Z,27.70
2017-08-11T06:34:39.973Z,20.70
2017-08-11T06:37:06.233Z,31.90
2017-08-11T06:39:32.500Z,23.90
2017-08-11T06:41:58.758Z,19.97
2017-08-11T06:44:24.989Z,19.07
2017-08-11T06:46:51.997Z,22.33
2017-08-11T06:49:18.242Z,25.53
2017-08-11T06:51:44.499Z,22.37
2017-08-11T06:54:10.754Z,19.57
2017-08-11T06:56:36.986Z,17.77
2017-08-11T06:59:03.411Z,17.93
2017-08-11T07:01:29.681Z,29.60
2017-08-11T07:03:55.939Z,23.07
2017-08-11T07:06:22.188Z,28.37
2017-08-11T07:08:48.439Z,29.33
2017-08-11T07:11:14.797Z,362.67
2017-08-11T07:13:41.056Z,536.83
2017-08-11T07:16:07.285Z,456.87
2017-08-11T07:18:33.511Z,82.87
2017-08-11T07:20:59.771Z,125.63
2017-08-11T07:23:26.040Z,98.03
2017-08-11T07:25:52.367Z,89.97
2017-08-11T07:28:18.582Z,71.90
2017-08-11T07:30:44.823Z,38.20
2017-08-11T07:33:11.046Z,44.40
2017-08-11T07:35:38.024Z,30.57
2017-08-11T07:38:04.263Z,32.50
2017-08-11T07:40:31.282Z,374.87
2017-08-11T07:42:58.638Z,388.40
2017-08-11T07:45:24.861Z,102.37
2017-08-11T07:47:51.109Z,98.90
2017-08-11T07:50:17.378Z,73.87
2017-08-11T07:52:43.641Z,38.00
2017-08-11T07:55:09.880Z,192.83
2017-08-11T07:57:36.096Z,500.87
2017-08-11T08:00:02.335Z,258.53
2017-08-11T08:02:28.569Z,162.03
2017-08-11T08:04:55.611Z,87.30
2017-08-11T08:07:21.842Z,64.77
2017-08-11T08:09:48.092Z,42.27
2017-08-11T08:12:14.340Z,77.97
2017-08-11T08:14:40.584Z,46.23
2017-08-11T08:17:06.822Z,45.00
2017-08-11T08:19:33.074Z,37.10
2017-08-11T08:21:59.311Z,37.23
2017-08-11T08:24:25.575Z,46.30
2017-08-11T08:26:51.830Z,35.77
2017-08-11T08:29:18.062Z,29.13
2017-08-11T08:31:44.321Z,31.77
2017-08-11T08:34:10.554Z,42.93
2017-08-11T08:36:36.806Z,31.37
2017-08-11T08:39:03.134Z,37.60
2017-08-11T08:41:29.411Z,28.10
2017-08-11T08:43:55.639Z,25.20
2017-08-11T08:46:21.895Z,31.33
2017-08-11T08:48:48.150Z,25.77
2017-08-11T08:51:14.397Z,27.00
2017-08-11T08:53:40.646Z,30.50
2017-08-11T08:56:06.917Z,31.20
2017-08-11T08:58:33.174Z,97.37
2017-08-11T09:01:00.143Z,89.90
2017-08-11T09:03:33.343Z,36.50
2017-08-11T09:06:00.342Z,193.53
2017-08-11T09:08:26.592Z,601.67
2017-08-11T09:10:52.841Z,165.43
2017-08-11T09:13:19.083Z,146.47
2017-08-11T09:15:45.316Z,337.40
2017-08-11T09:18:11.539Z,215.60
2017-08-11T09:20:38.530Z,42.00
2017-08-11T09:23:04.765Z,71.07
2017-08-11T09:25:43.846Z,45.13
2017-08-11T09:28:23.327Z,52.23
2017-08-11T09:31:02.873Z,173.63
2017-08-11T09:33:42.311Z,239.07
2017-08-11T09:36:21.071Z,263.20
2017-08-11T09:38:48.057Z,50.37
2017-08-11T09:41:14.314Z,131.00
2017-08-11T09:43:40.593Z,41.27
2017-08-11T09:46:07.605Z,154.33
2017-08-11T09:48:33.877Z,62.93
2017-08-11T09:51:00.144Z,68.50
2017-08-11T09:53:26.474Z,40.00
2017-08-11T09:55:52.818Z,49.30
2017-08-11T09:58:19.102Z,55.07
2017-08-11T10:00:46.128Z,250.57
2017-08-11T10:03:12.420Z,233.53
2017-08-11T10:05:39.410Z,93.60
2017-08-11T10:08:05.706Z,78.50
2017-08-11T10:10:32.064Z,97.17
2017-08-11T10:12:59.078Z,29.60
2017-08-11T10:15:25.338Z,61.47
2017-08-11T10:17:51.636Z,50.60
2017-08-11T10:20:18.650Z,36.40
2017-08-11T10:22:44.912Z,25.40
2017-08-11T10:25:11.157Z,23.00
2017-08-11T10:27:37.427Z,29.43
2017-08-11T10:30:03.701Z,22.53
2017-08-11T10:32:30.212Z,18.53
2017-08-11T10:34:56.532Z,25.10
2017-08-11T10:37:22.818Z,65.13
2017-08-11T10:39:49.125Z,37.80
2017-08-11T10:42:15.421Z,20.80
2017-08-11T10:44:42.723Z,37.20
2017-08-11T10:47:09.976Z,21.83
2017-08-11T10:49:36.975Z,17.33
2017-08-11T10:52:03.315Z,19.93
2017-08-11T10:54:29.570Z,16.97
2017-08-11T10:56:55.880Z,25.53
2017-08-11T10:59:22.194Z,14.13
2017-08-11T11:01:48.452Z,18.97
2017-08-11T11:04:14.840Z,16.87
2017-08-11T11:06:41.107Z,18.23
2017-08-11T11:09:07.405Z,14.00
2017-08-11T11:11:34.443Z,14.00
2017-08-11T11:14:00.731Z,51.83
2017-08-11T11:16:26.997Z,27.30
2017-08-11T11:18:53.298Z,142.47
2017-08-11T11:21:19.570Z,68.23
2017-08-11T11:23:45.881Z,21.23
2017-08-11T11:26:12.166Z,28.23
2017-08-11T11:28:38.445Z,17.70
2017-08-11T11:31:04.721Z,18.50
2017-08-11T11:33:31.011Z,31.87
2017-08-11T11:35:57.347Z,14.40
2017-08-11T11:38:24.355Z,15.73
2017-08-11T11:40:50.665Z,35.03
2017-08-11T11:43:17.707Z,15.47
2017-08-11T11:45:43.978Z,15.73
2017-08-11T11:48:11.035Z,14.57
2017-08-11T11:50:38.064Z,19.73
2017-08-11T11:53:04.369Z,39.57
2017-08-11T11:55:30.651Z,24.07
2017-08-11T11:57:56.929Z,14.77
2017-08-11T12:00:23.202Z,21.60
2017-08-11T12:02:50.278Z,17.10
2017-08-11T12:07:48.184Z,15.40
2017-08-11T12:10:15.240Z,14.57
2017-08-11T12:12:41.523Z,14.80
2017-08-11T12:15:07.797Z,16.87
2017-08-11T12:17:34.287Z,66.33
2017-08-11T12:20:01.362Z,160.30
2017-08-11T12:22:28.474Z,317.47
2017-08-11T12:24:54.754Z,46.57
2017-08-11T12:27:21.027Z,24.00
2017-08-11T12:29:48.021Z,31.03
2017-08-11T12:32:14.313Z,49.00
2017-08-11T12:34:40.677Z,233.57
2017-08-11T12:37:07.676Z,147.87
2017-08-11T12:39:33.959Z,182.10
2017-08-11T12:42:00.225Z,66.93
2017-08-11T12:44:26.482Z,90.40
2017-08-11T12:46:53.492Z,98.43
2017-08-11T12:49:19.767Z,54.40
2017-08-11T12:51:46.074Z,41.27
2017-08-11T12:54:12.361Z,36.07
2017-08-11T12:56:38.647Z,12.53
2017-08-11T12:59:05.006Z,31.30
2017-08-11T13:01:31.374Z,15.10
2017-08-11T13:03:57.646Z,15.13
2017-08-11T13:06:24.016Z,16.13
2017-08-11T13:08:50.303Z,15.97
2017-08-11T13:11:16.625Z,15.83
2017-08-11T13:13:43.702Z,11.70
2017-08-11T13:16:10.778Z,10.87
2017-08-11T13:18:37.047Z,11.37
2017-08-11T13:21:03.336Z,76.93
2017-08-11T13:23:29.655Z,69.73
2017-08-11T13:25:55.941Z,37.17
2017-08-11T13:28:22.231Z,81.00
2017-08-11T13:30:48.594Z,158.53
2017-08-11T13:33:14.879Z,138.27
2017-08-11T13:35:41.330Z,80.80
2017-08-11T13:38:07.608Z,123.57
2017-08-11T13:40:34.629Z,158.63
2017-08-11T13:43:01.027Z,161.93
2017-08-11T13:45:27.347Z,65.97
2017-08-11T13:47:54.463Z,42.40
2017-08-11T13:50:20.823Z,13.17
2017-08-11T13:52:47.095Z,113.20
2017-08-11T13:55:13.347Z,170.47
2017-08-11T13:57:39.604Z,69.30
2017-08-11T14:00:05.866Z,53.87
2017-08-11T14:02:32.891Z,62.80
2017-08-11T14:04:59.143Z,88.90
2017-08-11T14:07:26.194Z,47.17
2017-08-11T14:09:52.481Z,53.03
2017-08-11T14:12:18.730Z,35.50
2017-08-11T14:14:44.981Z,14.40
2017-08-11T14:17:12.003Z,24.90
2017-08-11T14:19:38.268Z,19.63
2017-08-11T14:22:04.535Z,14.03
2017-08-11T14:24:37.194Z,18.00
2017-08-11T14:27:03.527Z,15.50
2017-08-11T14:29:29.795Z,19.23
2017-08-11T14:31:56.088Z,14.93
2017-08-11T14:34:23.169Z,16.00
2017-08-11T14:36:49.415Z,17.13
2017-08-11T14:39:15.685Z,15.97
2017-08-11T14:41:41.962Z,107.63
2017-08-11T14:44:08.269Z,128.87
2017-08-11T14:46:34.551Z,336.53
2017-08-11T14:49:00.820Z,304.27
2017-08-11T14:51:27.915Z,241.63
2017-08-11T14:53:54.187Z,233.57
2017-08-11T14:56:20.470Z,67.43
2017-08-11T14:58:46.756Z,39.13
2017-08-11T15:01:13.039Z,35.30
2017-08-11T15:03:39.293Z,21.40
2017-08-11T15:06:05.571Z,27.33
2017-08-11T15:08:32.717Z,15.50
2017-08-11T15:10:58.977Z,23.70
2017-08-11T15:13:26.123Z,19.30
2017-08-11T15:15:52.497Z,19.37
2017-08-11T15:18:19.780Z,15.50
2017-08-11T15:20:46.201Z,13.13
2017-08-11T15:23:12.478Z,18.30
2017-08-11T15:25:38.812Z,16.50
2017-08-11T15:28:05.073Z,19.13
2017-08-11T15:30:32.184Z,16.67
2017-08-11T15:32:58.480Z,17.10
2017-08-11T15:35:25.491Z,15.40
2017-08-11T15:37:52.233Z,15.13
2017-08-11T15:40:18.509Z,17.67
2017-08-11T15:42:44.843Z,17.07
2017-08-11T15:45:11.126Z,18.40
2017-08-11T15:47:45.239Z,16.70
2017-08-11T15:50:11.506Z,16.63
2017-08-11T15:52:37.767Z,15.70
2017-08-11T15:55:04.072Z,29.83
2017-08-11T15:57:30.344Z,26.63
2017-08-11T15:59:56.653Z,72.33
2017-08-11T16:02:22.929Z,383.50
2017-08-11T16:04:49.429Z,113.67
2017-08-11T16:07:15.867Z,56.87
2017-08-11T16:09:42.199Z,47.90
2017-08-11T16:12:09.241Z,47.03
2017-08-11T16:14:35.662Z,27.43
2017-08-11T16:17:01.958Z,22.13
2017-08-11T16:19:28.264Z,19.70
2017-08-11T16:21:54.628Z,20.17
2017-08-11T16:24:20.919Z,23.67
2017-08-11T16:26:47.942Z,18.20
2017-08-11T16:29:14.224Z,16.63
2017-08-11T16:31:40.601Z,17.60
2017-08-11T16:34:06.925Z,18.13
2017-08-11T16:36:33.945Z,17.10
2017-08-11T16:39:00.206Z,17.33
2017-08-11T16:41:26.503Z,17.10
2017-08-11T16:43:53.506Z,18.20
2017-08-11T16:46:19.780Z,17.67
2017-08-11T16:48:46.025Z,15.40
2017-08-11T16:51:12.299Z,17.70
2017-08-11T16:53:39.318Z,16.20
2017-08-11T16:56:05.582Z,19.77
2017-08-11T16:58:31.939Z,28.40
2017-08-11T17:00:58.242Z,35.60
2017-08-11T17:03:24.498Z,34.77
2017-08-11T17:05:50.771Z,21.30
2017-08-11T17:08:17.896Z,22.77
2017-08-11T17:10:44.227Z,26.80
2017-08-11T17:13:11.254Z,26.03
2017-08-11T17:15:37.600Z,36.97
2017-08-11T17:18:04.674Z,26.00
2017-08-11T17:20:30.966Z,32.60
2017-08-11T17:22:57.261Z,25.70
2017-08-11T17:25:23.499Z,29.87
2017-08-11T17:27:49.762Z,22.40
2017-08-11T17:30:16.145Z,19.97
2017-08-11T17:32:43.155Z,29.53
2017-08-11T17:35:09.442Z,28.90
2017-08-11T17:37:36.459Z,19.43
2017-08-11T17:40:02.730Z,27.60
2017-08-11T17:42:29.018Z,21.93
2017-08-11T17:44:55.321Z,306.90
2017-08-11T17:47:21.635Z,132.57
2017-08-11T17:49:47.894Z,91.27
2017-08-11T17:52:14.183Z,27.90
2017-08-11T17:54:41.194Z,60.63
2017-08-11T17:57:07.455Z,37.23
2017-08-11T17:59:33.765Z,35.50
2017-08-11T18:02:00.056Z,44.33
2017-08-11T18:04:26.311Z,46.90
2017-08-11T18:06:52.611Z,29.93
2017-08-11T18:09:18.912Z,24.77
2017-08-11T18:11:45.176Z,25.97
2017-08-11T18:14:12.194Z,36.57
2017-08-11T18:16:38.445Z,48.50
2017-08-11T18:19:04.714Z,55.40
2017-08-11T18:21:30.980Z,38.37
2017-08-11T18:23:57.258Z,24.43
2017-08-11T18:26:24.246Z,40.83
2017-08-11T18:28:50.519Z,23.43
2017-08-11T18:31:16.766Z,33.83
2017-08-11T18:33:43.034Z,23.47
2017-08-11T18:36:09.330Z,224.07
2017-08-11T18:38:35.583Z,192.40
2017-08-11T18:41:01.850Z,155.60
2017-08-11T18:43:28.141Z,89.93
2017-08-11T18:45:55.197Z,69.30
2017-08-11T18:48:22.224Z,24.63
2017-08-11T18:50:48.498Z,58.37
2017-08-11T18:53:14.762Z,39.00
2017-08-11T18:55:41.032Z,26.70
2017-08-11T18:58:07.284Z,39.70
2017-08-11T19:00:33.591Z,29.40
2017-08-11T19:02:59.891Z,27.10
2017-08-11T19:05:26.164Z,25.50
2017-08-11T19:07:52.414Z,30.97
2017-08-11T19:10:18.667Z,24.47
2017-08-11T19:12:59.036Z,23.10
2017-08-11T19:15:27.768Z,28.33
2017-08-11T19:17:54.803Z,26.90
2017-08-11T19:20:21.074Z,45.57
2017-08-11T19:22:48.120Z,35.23
2017-08-11T19:25:14.373Z,21.43
2017-08-11T19:27:41.399Z,27.67
2017-08-11T19:30:07.649Z,28.73
2017-08-11T19:32:33.938Z,35.30
2017-08-11T19:35:00.226Z,31.83
2017-08-11T19:37:26.517Z,20.20
2017-08-11T19:39:52.909Z,24.73
2017-08-11T19:42:19.915Z,21.27
2017-08-11T19:44:46.191Z,23.40
2017-08-11T19:47:12.465Z,26.47
2017-08-11T19:49:39.466Z,19.43
2017-08-11T19:52:05.779Z,24.90
2017-08-11T19:54:32.042Z,25.63
2017-08-11T19:56:58.314Z,26.53
2017-08-11T19:59:24.600Z,23.23
2017-08-11T20:01:51.608Z,22.20
2017-08-11T20:04:17.902Z,24.33
2017-08-11T20:06:44.186Z,20.23
2017-08-11T20:09:11.011Z,24.10
2017-08-11T20:11:37.312Z,21.77
2017-08-11T20:14:03.588Z,20.23
2017-08-11T20:16:29.961Z,21.03
2017-08-11T20:18:56.249Z,27.30
2017-08-11T20:21:22.495Z,21.23
2017-08-11T20:23:48.776Z,19.07
2017-08-11T20:26:15.086Z,17.50
2017-08-11T20:28:41.367Z,14.60
2017-08-11T20:31:07.663Z,20.30
2017-08-11T20:33:33.953Z,19.50
2017-08-11T20:36:00.207Z,16.97
2017-08-11T20:38:26.506Z,18.10
2017-08-11T20:40:52.806Z,17.80
2017-08-11T20:43:19.091Z,19.57
2017-08-11T20:45:45.386Z,20.13
2017-08-11T20:48:11.666Z,22.87
2017-08-11T20:50:37.944Z,23.87
2017-08-11T20:53:04.963Z,24.43
2017-08-11T20:55:31.255Z,34.23
2017-08-11T20:57:58.278Z,21.80
2017-08-11T21:00:24.595Z,26.20
2017-08-11T21:02:50.842Z,24.87
2017-08-11T21:05:17.229Z,24.10
2017-08-11T21:07:43.521Z,22.27
2017-08-11T21:10:09.823Z,20.17
2017-08-11T21:12:36.144Z,20.73
2017-08-11T21:15:02.571Z,20.13
2017-08-11T21:17:28.869Z,22.27
2017-08-11T21:19:55.935Z,18.50
2017-08-11T21:22:22.266Z,16.27
2017-08-11T21:24:48.571Z,20.20
2017-08-11T21:27:15.006Z,20.40
2017-08-11T21:29:41.339Z,17.63
2017-08-11T21:32:07.661Z,20.50
2017-08-11T21:34:34.019Z,19.83
2017-08-11T21:37:00.293Z,20.67
2017-08-11T21:39:26.671Z,25.10
2017-08-11T21:41:53.004Z,22.17
2017-08-11T21:44:20.038Z,18.47
2017-08-11T21:46:46.349Z,22.30
2017-08-11T21:49:12.643Z,17.20
2017-08-11T21:51:38.958Z,19.60
2017-08-11T21:54:05.314Z,18.47
2017-08-11T21:56:31.675Z,18.37
2017-08-11T21:58:57.990Z,21.57
2017-08-11T22:01:24.296Z,22.13
2017-08-11T22:03:51.349Z,19.43
2017-08-11T22:06:17.671Z,21.20
2017-08-11T22:08:43.923Z,22.67
2017-08-11T22:11:10.338Z,21.63
2017-08-11T22:13:36.659Z,21.00
2017-08-11T22:16:03.705Z,23.40
2017-08-11T22:18:30.017Z,18.00
2017-08-11T22:20:56.319Z,19.20
2017-08-11T22:23:22.573Z,20.30
2017-08-11T22:25:49.623Z,18.73
2017-08-11T22:28:15.928Z,17.70
2017-08-11T22:30:42.220Z,20.23
2017-08-11T22:33:08.483Z,21.33
2017-08-11T22:35:35.487Z,24.83
2017-08-11T22:38:01.765Z,17.47
2017-08-11T22:40:28.042Z,19.10
2017-08-11T22:42:55.072Z,20.67
2017-08-11T22:45:21.345Z,15.10
2017-08-11T22:47:47.601Z,15.53
2017-08-11T22:50:14.601Z,20.40
2017-08-11T22:52:40.873Z,15.70
2017-08-11T22:55:07.160Z,18.70
2017-08-11T22:57:34.182Z,15.77
2017-08-11T23:00:00.471Z,16.90
2017-08-11T23:02:27.480Z,13.30
2017-08-11T23:04:53.747Z,14.37
2017-08-11T23:07:20.009Z,15.37
2017-08-11T23:09:46.279Z,14.50
2017-08-11T23:12:13.322Z,18.43
2017-08-11T23:14:39.621Z,15.80
2017-08-11T23:17:05.889Z,15.73
2017-08-11T23:19:32.171Z,13.23
2017-08-11T23:21:59.192Z,17.93
2017-08-11T23:24:25.483Z,14.40
2017-08-11T23:26:51.755Z,12.63
2017-08-11T23:29:18.542Z,14.73
2017-08-11T23:31:44.931Z,10.97
2017-08-11T23:34:11.205Z,15.00
2017-08-11T23:36:38.198Z,16.27
2017-08-11T23:39:04.469Z,15.63
2017-08-11T23:41:30.730Z,9.50
2017-08-11T23:43:56.988Z,9.73
2017-08-11T23:46:23.248Z,8.30
2017-08-11T23:48:49.509Z,9.20
2017-08-11T23:51:16.517Z,10.53
2017-08-11T23:53:42.786Z,7.13
2017-08-11T23:56:09.833Z,5.27
2017-08-11T23:58:36.110Z,5.47
